Time;durP1;ratioP1;P1;durP2;ratioP2;P2;SDS_P1;SDS_P2;PMS_P1;PMS_P2;Temp;Humidity;BMP_temperature;BMP_pressure;BME280_temperature;BME280_humidity;BME280_pressure;Samples;Min_cycle;Max_cycle;Signal;HPM_P1;HPM_P2
2021/10/27 00:00:06;;;;;;;25.20;12.98;;;;;;;13.46;89.83;102055.28;5054932;28;20070;-73
2021/10/27 00:02:31;;;;;;;25.38;12.48;;;;;;;13.48;89.64;102056.72;5055395;28;20021;-73
2021/10/27 00:04:56;;;;;;;29.27;13.18;;;;;;;13.49;89.38;102049.72;5054780;28;20486;-72
2021/10/27 00:07:23;;;;;;;26.75;12.02;;;;;;;13.47;89.70;102046.53;5054763;28;20028;-73
2021/10/27 00:09:50;;;;;;;23.35;12.10;;;;;;;13.51;89.45;102052.97;5054506;28;20483;-73
2021/10/27 00:12:15;;;;;;;24.63;11.57;;;;;;;13.53;89.41;102051.00;5054908;28;20025;-72
2021/10/27 00:14:41;;;;;;;27.95;12.10;;;;;;;13.55;89.42;102054.22;5036864;28;20383;-72
2021/10/27 00:17:07;;;;;;;33.10;12.10;;;;;;;13.50;89.68;102048.75;5054624;28;20035;-72
2021/10/27 00:19:32;;;;;;;29.15;11.98;;;;;;;13.54;89.11;102043.03;5036554;28;20053;-72
2021/10/27 00:21:57;;;;;;;22.83;11.40;;;;;;;13.59;88.76;102054.69;5054235;28;20080;-71
2021/10/27 00:24:22;;;;;;;23.08;11.55;;;;;;;13.59;89.11;102046.91;5054326;28;20032;-72
2021/10/27 00:26:48;;;;;;;21.30;10.93;;;;;;;13.62;89.14;102049.16;5036481;28;20079;-72
2021/10/27 00:29:13;;;;;;;23.50;10.63;;;;;;;13.57;89.39;102043.66;5036429;28;20021;-73
2021/10/27 00:31:38;;;;;;;26.63;10.85;;;;;;;13.58;89.29;102046.09;5054200;28;20052;-72
2021/10/27 00:34:04;;;;;;;24.20;10.02;;;;;;;13.61;88.92;102047.50;5054242;28;20068;-73
2021/10/27 00:36:30;;;;;;;22.42;10.07;;;;;;;13.64;89.02;102044.59;5054014;28;20021;-72
2021/10/27 00:38:55;;;;;;;23.92;10.20;;;;;;;13.59;89.27;102046.91;5054130;28;20459;-71
2021/10/27 00:41:20;;;;;;;26.73;9.75;;;;;;;13.58;89.10;102050.47;5054095;28;20033;-71
2021/10/27 00:43:46;;;;;;;21.52;9.75;;;;;;;13.62;89.03;102042.16;5036010;28;20163;-72
2021/10/27 00:46:20;;;;;;;20.65;9.80;;;;;;;13.62;88.87;102046.56;5035973;28;20017;-73
2021/10/27 00:48:46;;;;;;;22.73;9.32;;;;;;;13.65;88.54;102054.78;5053887;28;20467;-71
2021/10/27 00:51:11;;;;;;;19.30;8.88;;;;;;;13.64;88.53;102049.78;5054210;28;20345;-73
2021/10/27 00:53:36;;;;;;;20.33;8.55;;;;;;;13.59;89.15;102050.31;5036015;28;20031;-72
2021/10/27 00:56:02;;;;;;;26.08;8.88;;;;;;;13.61;88.97;102047.50;5053764;28;20029;-72
2021/10/27 00:58:28;;;;;;;25.52;8.75;;;;;;;13.63;88.98;102035.16;5053711;28;20090;-72
2021/10/27 01:00:53;;;;;;;22.05;8.70;;;;;;;13.63;89.01;102045.56;5053696;28;20027;-73
2021/10/27 01:03:19;;;;;;;23.85;8.60;;;;;;;13.64;88.82;102048.00;5035811;28;20025;-72
2021/10/27 01:05:44;;;;;;;26.40;8.27;;;;;;;13.64;89.13;102044.59;5053612;28;20021;-73
2021/10/27 01:08:11;;;;;;;21.38;8.80;;;;;;;13.62;89.07;102052.53;5053590;28;20024;-72
2021/10/27 01:10:37;;;;;;;24.73;9.25;;;;;;;13.63;89.31;102051.56;5053438;28;20025;-72
2021/10/27 01:13:02;;;;;;;25.40;9.20;;;;;;;13.66;89.19;102055.59;5035659;28;20021;-73
2021/10/27 01:15:27;;;;;;;21.20;8.93;;;;;;;13.63;89.24;102054.16;5053590;28;20028;-72
2021/10/27 01:17:53;;;;;;;24.83;9.30;;;;;;;13.62;89.19;102056.94;5053993;28;20025;-72
2021/10/27 01:20:18;;;;;;;20.13;8.38;;;;;;;13.70;88.82;102068.06;5034785;28;20114;-72
2021/10/27 01:22:43;;;;;;;25.15;9.77;;;;;;;13.69;89.03;102070.81;5053452;28;20464;-72
2021/10/27 01:25:11;;;;;;;20.75;8.75;;;;;;;13.66;89.39;102071.97;5053398;28;20100;-72
2021/10/27 01:27:44;;;;;;;20.33;9.07;;;;;;;13.73;89.07;102066.91;5053325;28;20114;-73
2021/10/27 01:30:12;;;;;;;23.17;9.18;;;;;;;13.69;89.15;102065.63;5053328;28;20021;-72
2021/10/27 01:32:38;;;;;;;22.75;9.45;;;;;;;13.66;89.46;102066.78;5053296;28;20025;-72
2021/10/27 01:35:06;;;;;;;23.70;9.40;;;;;;;13.69;89.60;102060.44;5053225;28;20486;-72
2021/10/27 01:37:31;;;;;;;20.38;9.15;;;;;;;13.70;89.95;102057.69;5035391;28;20028;-72
2021/10/27 01:39:57;;;;;;;20.77;9.20;;;;;;;13.71;89.80;102061.06;5035375;28;20382;-72
2021/10/27 01:42:22;;;;;;;16.35;8.70;;;;;;;13.62;90.13;102059.53;5035352;28;20028;-73
2021/10/27 01:44:47;;;;;;;22.23;9.38;;;;;;;13.63;90.27;102061.13;5035288;28;20071;-72
2021/10/27 01:47:13;;;;;;;20.27;9.40;;;;;;;13.54;90.57;102052.63;5053154;28;20025;-72
2021/10/27 01:49:39;;;;;;;25.00;9.48;;;;;;;13.42;91.45;102047.03;5053135;28;20033;-72
2021/10/27 01:52:04;;;;;;;21.00;9.18;;;;;;;13.42;90.99;102044.44;5035311;28;20048;-72
2021/10/27 01:54:30;;;;;;;22.25;9.57;;;;;;;13.38;91.33;102047.53;5053036;28;20379;-71
2021/10/27 01:56:56;;;;;;;19.83;9.50;;;;;;;13.33;91.46;102048.09;5035312;28;20025;-71
2021/10/27 01:59:21;;;;;;;16.50;9.55;;;;;;;13.35;91.49;102043.53;5053072;28;20463;-71
2021/10/27 02:01:48;;;;;;;19.00;9.48;;;;;;;13.39;91.61;102041.38;5035159;28;20025;-73
2021/10/27 02:04:14;;;;;;;21.65;9.30;;;;;;;13.37;91.48;102043.34;5053059;28;20475;-72
2021/10/27 02:06:40;;;;;;;23.00;9.25;;;;;;;13.41;91.36;102044.63;5053053;28;20029;-72
2021/10/27 02:09:05;;;;;;;22.70;9.18;;;;;;;13.45;91.03;102048.47;5052983;28;20025;-72
2021/10/27 02:11:30;;;;;;;24.42;9.85;;;;;;;13.46;91.17;102037.91;5052927;28;20074;-72
2021/10/27 02:13:56;;;;;;;22.83;9.70;;;;;;;13.47;91.20;102041.31;5052972;28;20444;-73
2021/10/27 02:16:22;;;;;;;23.08;10.10;;;;;;;13.40;91.63;102030.00;5052938;28;20083;-73
2021/10/27 02:18:48;;;;;;;20.67;9.70;;;;;;;13.40;91.65;102038.59;5052865;28;20017;-73
2021/10/27 02:21:13;;;;;;;27.40;9.75;;;;;;;13.41;91.31;102031.66;5052703;28;20128;-72
2021/10/27 02:23:38;;;;;;;22.48;9.77;;;;;;;13.44;91.43;102042.47;5052835;28;20025;-72
2021/10/27 02:26:03;;;;;;;24.48;10.25;;;;;;;13.47;91.73;102036.13;5053387;28;20029;-71
2021/10/27 02:28:29;;;;;;;18.58;9.90;;;;;;;13.43;91.72;102043.44;5052752;28;20028;-72
2021/10/27 02:30:54;;;;;;;26.65;10.43;;;;;;;13.49;91.60;102047.97;5052764;28;20064;-73
2021/10/27 02:33:19;;;;;;;19.98;9.93;;;;;;;13.45;91.56;102038.09;5055564;28;20112;-71
2021/10/27 02:35:45;;;;;;;20.63;10.00;;;;;;;13.54;90.97;102037.84;5056391;28;20383;-72
2021/10/27 02:38:10;;;;;;;19.35;10.38;;;;;;;13.51;91.11;102040.78;5056971;28;20033;-73
2021/10/27 02:40:36;;;;;;;19.55;10.15;;;;;;;13.56;91.06;102040.25;5038388;28;20029;-72
2021/10/27 02:43:01;;;;;;;18.40;10.23;;;;;;;13.48;91.20;102035.94;5056265;28;20032;-72
2021/10/27 02:45:26;;;;;;;24.67;10.88;;;;;;;13.53;90.96;102038.81;5056318;28;20028;-73
2021/10/27 02:47:52;;;;;;;19.08;9.48;;;;;;;13.51;90.78;102032.19;5056498;28;20029;-72
2021/10/27 02:50:17;;;;;;;25.50;9.70;;;;;;;13.50;90.70;102036.59;5056205;28;20107;-72
2021/10/27 02:52:45;;;;;;;21.90;8.38;;;;;;;13.52;90.46;102028.59;5056098;28;20375;-73
2021/10/27 02:55:12;;;;;;;25.08;8.80;;;;;;;13.50;90.50;102020.19;5038055;28;20076;-73
2021/10/27 02:57:38;;;;;;;19.50;8.07;;;;;;;13.49;90.63;102018.56;5038028;28;20025;-73
2021/10/27 03:00:06;;;;;;;21.98;8.73;;;;;;;13.52;90.59;102019.03;5038151;28;20033;-72
2021/10/27 03:02:31;;;;;;;16.60;7.50;;;;;;;13.52;90.13;102023.41;5038046;28;20079;-72
2021/10/27 03:04:56;;;;;;;18.60;6.75;;;;;;;13.49;90.26;102027.19;5038069;28;20025;-71
2021/10/27 03:07:22;;;;;;;18.50;6.47;;;;;;;13.56;89.98;102027.28;5037970;28;20027;-72
2021/10/27 03:09:47;;;;;;;14.13;6.47;;;;;;;13.50;90.33;102031.38;5037936;28;20029;-72
2021/10/27 03:12:12;;;;;;;19.02;6.43;;;;;;;13.46;90.42;102034.50;5055829;28;20422;-72
2021/10/27 03:14:37;;;;;;;15.38;5.90;;;;;;;13.42;90.57;102025.47;5055512;28;20025;-72
2021/10/27 03:17:03;;;;;;;20.92;6.25;;;;;;;13.40;90.53;102019.63;5055746;28;20025;-73
2021/10/27 03:19:28;;;;;;;15.55;5.88;;;;;;;13.44;90.42;102029.50;5055911;28;20037;-72
2021/10/27 03:21:53;;;;;;;19.80;5.97;;;;;;;13.46;90.15;102027.50;5055520;28;20045;-73
2021/10/27 03:24:19;;;;;;;18.45;5.63;;;;;;;13.47;90.18;102033.53;5055542;28;20111;-73
2021/10/27 03:26:45;;;;;;;14.55;5.60;;;;;;;13.51;89.94;102040.78;5055484;28;20378;-72
2021/10/27 03:29:10;;;;;;;18.23;5.65;;;;;;;13.42;89.95;102041.03;5037576;28;20032;-72
2021/10/27 03:31:36;;;;;;;19.58;5.28;;;;;;;13.47;90.01;102036.13;5055976;28;20122;-72
2021/10/27 03:34:01;;;;;;;14.77;5.05;;;;;;;13.48;89.88;102048.13;5037480;28;20549;-72
2021/10/27 03:36:27;;;;;;;15.43;5.35;;;;;;;13.46;89.89;102043.09;5055233;28;20378;-73
2021/10/27 03:38:52;;;;;;;15.65;5.75;;;;;;;13.46;89.91;102040.50;5055605;28;20414;-72
2021/10/27 03:41:17;;;;;;;16.13;5.15;;;;;;;13.49;89.64;102049.72;5055255;28;20059;-72
2021/10/27 03:43:43;;;;;;;23.48;5.15;;;;;;;13.43;90.10;102056.44;5054682;28;20025;-72
2021/10/27 03:46:10;;;;;;;14.25;4.80;;;;;;;13.38;90.13;102050.13;5055131;28;20414;-71
2021/10/27 03:48:36;;;;;;;15.73;5.28;;;;;;;13.34;90.39;102054.06;5055070;28;20032;-73
2021/10/27 03:51:01;;;;;;;15.85;5.20;;;;;;;13.26;90.62;102052.34;5055080;28;20021;-73
2021/10/27 03:53:26;;;;;;;14.88;5.22;;;;;;;13.32;90.54;102056.84;5054955;28;20051;-72
2021/10/27 03:55:52;;;;;;;21.08;5.32;;;;;;;13.33;90.17;102048.09;5054908;28;20033;-71
2021/10/27 03:58:17;;;;;;;14.15;5.20;;;;;;;13.38;90.35;102050.97;5055031;28;20039;-73
2021/10/27 04:00:42;;;;;;;20.75;5.40;;;;;;;13.32;90.34;102055.06;5054936;28;20033;-73
2021/10/27 04:03:08;;;;;;;19.27;5.38;;;;;;;13.32;90.03;102049.03;5054883;28;20021;-72
2021/10/27 04:05:33;;;;;;;18.55;6.55;;;;;;;13.33;90.23;102042.88;5054712;28;20082;-73
2021/10/27 04:07:59;;;;;;;16.13;6.15;;;;;;;13.36;89.99;102041.75;5036755;28;20025;-72
2021/10/27 04:10:24;;;;;;;19.52;6.15;;;;;;;13.35;90.18;102047.88;5054638;28;20044;-72
2021/10/27 04:12:49;;;;;;;17.02;6.28;;;;;;;13.31;90.13;102040.44;5054574;28;20020;-72
2021/10/27 04:15:15;;;;;;;22.08;6.28;;;;;;;13.37;89.76;102032.94;5054472;28;20033;-73
2021/10/27 04:17:41;;;;;;;13.32;5.70;;;;;;;13.36;89.72;102039.13;5054165;28;20021;-72
2021/10/27 04:20:08;;;;;;;19.45;5.88;;;;;;;13.33;89.75;102037.69;5054648;28;20132;-72
2021/10/27 04:22:34;;;;;;;14.07;5.30;;;;;;;13.36;89.79;102041.75;5054347;28;20029;-72
2021/10/27 04:25:00;;;;;;;14.50;5.32;;;;;;;13.29;89.90;102028.63;5054380;28;20056;-73
2021/10/27 04:27:25;;;;;;;14.85;5.32;;;;;;;13.37;90.00;102046.75;5054790;28;20029;-72
2021/10/27 04:29:51;;;;;;;11.25;5.25;;;;;;;13.36;89.93;102046.94;5036402;28;20064;-72
2021/10/27 04:32:17;;;;;;;22.00;6.75;;;;;;;13.28;90.14;102055.56;5054188;28;20025;-72
2021/10/27 04:34:42;;;;;;;22.65;6.18;;;;;;;13.30;90.03;102059.63;5036487;28;20025;-72
2021/10/27 04:37:09;;;;;;;17.77;5.43;;;;;;;13.28;90.23;102063.38;5036201;28;20024;-72
2021/10/27 04:39:35;;;;;;;11.10;5.55;;;;;;;13.31;90.14;102061.22;5054330;28;20028;-72
2021/10/27 04:42:00;;;;;;;14.55;5.68;;;;;;;13.25;90.32;102058.50;5036245;28;20111;-73
2021/10/27 04:44:25;;;;;;;20.33;5.60;;;;;;;13.23;90.45;102058.66;5036085;28;20479;-73
2021/10/27 04:46:51;;;;;;;22.17;5.95;;;;;;;13.21;90.62;102060.63;5054442;28;20025;-73
2021/10/27 04:49:16;;;;;;;13.48;5.53;;;;;;;13.22;90.65;102064.84;5053943;28;20107;-73
2021/10/27 04:51:41;;;;;;;18.15;5.68;;;;;;;13.26;90.29;102060.97;5053923;28;20021;-72
2021/10/27 04:54:07;;;;;;;17.05;5.88;;;;;;;13.22;90.46;102061.44;5053627;28;20383;-73
2021/10/27 04:56:32;;;;;;;12.70;5.25;;;;;;;13.23;90.31;102056.06;5053101;28;20025;-72
2021/10/27 04:58:57;;;;;;;13.82;6.07;;;;;;;13.19;90.55;102056.59;5035740;28;20047;-72
2021/10/27 05:01:22;;;;;;;10.82;5.30;;;;;;;13.22;90.26;102051.06;5053531;28;20099;-72
2021/10/27 05:03:48;;;;;;;16.83;5.53;;;;;;;13.24;89.97;102052.50;5054144;28;20021;-73
2021/10/27 05:06:13;;;;;;;15.25;5.22;;;;;;;13.28;89.44;102048.59;5056024;28;20059;-71
2021/10/27 05:08:39;;;;;;;12.25;4.80;;;;;;;13.34;89.31;102064.47;5036441;28;20017;-72
2021/10/27 05:11:04;;;;;;;17.52;4.90;;;;;;;13.30;89.16;102058.81;5053493;28;20020;-72
2021/10/27 05:13:30;;;;;;;15.00;4.82;;;;;;;13.23;89.03;102065.63;5035745;28;20379;-72
2021/10/27 05:15:55;;;;;;;13.75;4.90;;;;;;;13.26;89.03;102054.94;5035484;28;20037;-72
2021/10/27 05:18:20;;;;;;;14.60;4.60;;;;;;;13.28;88.41;102055.56;5053796;28;20028;-72
2021/10/27 05:20:46;;;;;;;16.17;4.40;;;;;;;13.34;88.50;102064.47;5053325;28;20136;-72
2021/10/27 05:23:12;;;;;;;13.20;5.13;;;;;;;13.36;88.21;102062.50;5053597;28;20425;-73
2021/10/27 05:25:39;;;;;;;11.25;4.72;;;;;;;13.38;88.25;102058.75;5053515;28;20039;-73
2021/10/27 05:28:05;;;;;;;14.32;5.00;;;;;;;13.37;87.41;102059.72;5054190;28;20520;-71
2021/10/27 05:30:30;;;;;;;16.08;5.13;;;;;;;13.37;87.55;102058.91;5053823;28;20025;-72
2021/10/27 05:32:57;;;;;;;15.77;4.82;;;;;;;13.37;87.47;102062.31;5053988;28;20035;-72
2021/10/27 05:35:25;;;;;;;11.75;4.70;;;;;;;13.35;87.66;102059.09;5035420;28;20116;-72
2021/10/27 05:37:50;;;;;;;14.93;5.40;;;;;;;13.38;87.36;102058.75;5053145;28;20029;-71
2021/10/27 05:40:16;;;;;;;11.13;4.47;;;;;;;13.39;87.46;102049.97;5053114;28;20106;-72
2021/10/27 05:42:41;;;;;;;14.20;4.32;;;;;;;13.44;87.11;102058.06;5053112;28;20116;-72
2021/10/27 05:45:07;;;;;;;22.95;4.65;;;;;;;13.42;86.87;102059.22;5052978;28;20070;-72
2021/10/27 05:47:33;;;;;;;23.33;5.07;;;;;;;13.41;86.81;102068.00;5053068;28;20028;-71
2021/10/27 05:58:46;;;;;;;12.88;4.45;;;;;;;13.40;87.24;102072.34;5053298;28;20090;-72
2021/10/27 06:01:13;;;;;;;11.57;4.38;;;;;;;13.51;86.62;102068.53;5034897;28;20021;-72
2021/10/27 06:03:38;;;;;;;13.20;4.22;;;;;;;13.46;86.88;102063.88;5034752;28;20036;-72
2021/10/27 06:06:04;;;;;;;11.48;4.03;;;;;;;13.50;86.51;102062.56;5035699;28;20028;-72
2021/10/27 06:08:29;;;;;;;14.93;4.18;;;;;;;13.47;86.72;102068.09;5057253;28;20123;-73
2021/10/27 06:10:58;;;;;;;10.35;4.00;;;;;;;13.44;87.19;102065.84;5056670;28;20108;-71
2021/10/27 06:13:31;;;;;;;12.65;4.03;;;;;;;13.50;86.27;102078.13;5056715;28;20430;-72
2021/10/27 06:15:57;;;;;;;12.20;4.10;;;;;;;13.53;85.66;102075.19;5057264;28;20025;-72
2021/10/27 06:18:22;;;;;;;15.10;4.25;;;;;;;13.53;86.13;102082.16;5056571;28;20467;-72
2021/10/27 06:20:47;;;;;;;10.50;3.88;;;;;;;13.51;86.20;102084.94;5038521;28;20402;-73
2021/10/27 06:23:13;;;;;;;13.85;4.70;;;;;;;13.52;86.25;102081.38;5056854;28;20029;-72
2021/10/27 06:25:39;;;;;;;11.98;4.20;;;;;;;13.56;85.88;102086.22;5056472;28;20099;-73
2021/10/27 06:28:14;;;;;;;12.55;4.10;;;;;;;13.51;86.31;102079.72;5056427;28;20028;-72
2021/10/27 06:30:44;;;;;;;13.20;4.35;;;;;;;13.52;86.13;102078.78;5038677;28;20029;-72
2021/10/27 06:35:45;;;;;;;12.52;4.22;;;;;;;13.51;85.99;102078.94;5056555;28;20037;-72
2021/10/27 06:48:58;;;;;;;11.15;3.75;;;;;;;13.59;85.58;102104.03;5059895;28;20534;-73
2021/10/27 06:51:23;;;;;;;9.18;3.60;;;;;;;13.64;85.60;102112.13;5056356;28;20017;-71
2021/10/27 06:53:49;;;;;;;12.48;3.88;;;;;;;13.69;85.41;102105.41;5038011;28;20505;-72
2021/10/27 06:56:16;;;;;;;18.73;4.18;;;;;;;13.69;84.97;102115.00;5055897;28;20036;-71
2021/10/27 06:58:46;;;;;;;12.32;3.53;;;;;;;13.74;85.04;102117.88;5037947;28;20017;-72
2021/10/27 07:01:22;;;;;;;12.50;3.47;;;;;;;13.77;84.81;102125.31;5037980;28;20031;-73
2021/10/27 07:04:40;;;;;;;13.25;3.63;;;;;;;13.53;84.85;102089.97;5056317;28;20029;-74
2021/10/27 07:06:51;;;;;;;11.90;3.70;;;;;;;13.76;85.22;102121.91;5049838;28;20120;-72
2021/10/27 07:17:20;;;;;;;11.20;3.38;;;;;;;13.75;84.77;102128.09;5055618;28;20386;-72
2021/10/27 07:19:45;;;;;;;12.50;3.10;;;;;;;13.59;84.32;102080.66;5037115;28;20025;-72
2021/10/27 07:22:14;;;;;;;10.68;3.53;;;;;;;13.92;83.85;102120.94;5037769;28;20494;-73
2021/10/27 07:24:41;;;;;;;12.38;3.40;;;;;;;13.81;84.13;102129.19;5055516;28;20387;-72
2021/10/27 07:27:07;;;;;;;8.75;3.30;;;;;;;13.84;84.40;102134.03;5055401;28;20497;-72
2021/10/27 07:29:33;;;;;;;12.00;3.78;;;;;;;13.71;84.49;102119.03;5055441;28;20021;-72
2021/10/27 07:31:58;;;;;;;12.60;3.45;;;;;;;13.75;84.82;102133.31;5055298;28;20017;-72
2021/10/27 07:34:31;;;;;;;19.15;3.90;;;;;;;13.76;84.89;102140.09;5037298;28;20102;-71
2021/10/27 07:42:24;;;;;;;7.47;3.13;;;;;;;13.84;84.95;102144.44;5056041;28;20036;-74
2021/10/27 07:44:50;;;;;;;12.05;3.70;;;;;;;13.81;84.85;102156.94;5055022;28;20440;-72
2021/10/27 07:47:15;;;;;;;15.18;4.03;;;;;;;13.89;84.95;102156.88;5055003;28;20021;-72
2021/10/27 07:49:41;;;;;;;13.50;4.00;;;;;;;13.86;84.68;102150.25;5055545;28;20078;-73
2021/10/27 07:52:07;;;;;;;11.25;4.13;;;;;;;13.88;84.59;102150.88;5054937;28;20032;-72
2021/10/27 07:54:33;;;;;;;9.55;3.65;;;;;;;13.61;84.69;102121.06;5036956;28;20464;-72
2021/10/27 07:56:58;;;;;;;11.68;4.20;;;;;;;13.92;84.37;102159.94;5036900;28;20031;-72
2021/10/27 07:59:24;;;;;;;11.27;3.88;;;;;;;13.91;84.34;102153.13;5036844;28;20024;-73
2021/10/27 08:05:12;;;;;;;13.00;3.80;;;;;;;13.99;84.26;102155.66;5055004;28;20036;-72
2021/10/27 08:07:44;;;;;;;15.68;4.40;;;;;;;13.88;83.92;102147.47;5054557;28;20432;-72
2021/10/27 08:10:11;;;;;;;10.77;4.18;;;;;;;13.99;84.12;102160.84;5041748;28;20025;-72
2021/10/27 08:12:36;;;;;;;10.50;3.45;;;;;;;14.01;83.48;102147.69;5037055;28;20033;-72
2021/10/27 08:15:01;;;;;;;11.77;4.00;;;;;;;14.09;83.61;102155.41;5054304;28;20025;-72
2021/10/27 08:17:27;;;;;;;11.65;4.00;;;;;;;14.09;83.44;102163.19;5054538;28;20028;-72
2021/10/27 08:19:52;;;;;;;8.40;3.78;;;;;;;13.96;83.90;102160.41;5036390;28;20029;-71
2021/10/27 08:22:19;;;;;;;15.25;3.90;;;;;;;14.04;83.84;102159.50;5054427;28;20029;-72
2021/10/27 08:24:44;;;;;;;12.82;4.20;;;;;;;14.09;83.49;102159.81;5036369;28;20021;-73
2021/10/27 08:27:12;;;;;;;14.23;4.65;;;;;;;14.08;83.50;102164.19;5054423;28;20086;-72
2021/10/27 08:29:39;;;;;;;12.95;4.22;;;;;;;14.05;83.39;102161.16;5054553;28;20056;-72
2021/10/27 08:32:29;;;;;;;11.85;3.70;;;;;;;14.10;83.10;102164.03;5054805;28;20033;-73
2021/10/27 08:34:55;;;;;;;12.57;4.00;;;;;;;14.09;83.35;102165.00;5054161;28;20028;-72
2021/10/27 08:37:20;;;;;;;15.07;4.35;;;;;;;14.03;83.18;102170.91;5036275;28;20062;-71
2021/10/27 08:39:45;;;;;;;12.55;4.60;;;;;;;14.13;83.39;102167.09;5036228;28;20028;-72
2021/10/27 08:42:15;;;;;;;13.85;4.10;;;;;;;14.17;83.01;102173.53;5036068;28;20043;-72
2021/10/27 08:44:44;;;;;;;12.30;4.10;;;;;;;14.40;82.30;102177.88;5053974;28;20031;-73
2021/10/27 08:47:10;;;;;;;10.18;3.78;;;;;;;14.42;82.24;102165.50;5054420;28;20422;-72
2021/10/27 08:49:37;;;;;;;15.23;4.15;;;;;;;14.44;81.93;102173.91;5036115;28;20025;-73
2021/10/27 08:52:06;;;;;;;18.38;3.88;;;;;;;14.65;81.26;102166.25;5053783;28;20107;-73
2021/10/27 08:54:32;;;;;;;15.48;3.85;;;;;;;14.81;80.49;102170.44;5035885;28;20027;-72
2021/10/27 08:57:03;;;;;;;13.75;3.97;;;;;;;15.01;79.57;102167.28;5035815;28;20059;-72
2021/10/27 08:59:41;;;;;;;13.38;3.80;;;;;;;14.87;79.65;102172.34;5053811;28;20112;-72
2021/10/27 09:02:25;;;;;;;11.30;3.65;;;;;;;15.01;79.14;102172.50;5035926;28;20410;-72
2021/10/27 09:35:01;;;;;;;8.60;3.00;;;;;;;15.02;78.50;102179.34;5054405;28;20031;-72
2021/10/27 09:37:41;;;;;;;10.45;3.33;;;;;;;15.17;78.27;102185.31;5053099;28;20033;-72
2021/10/27 09:42:49;;;;;;;11.50;4.10;;;;;;;14.93;79.04;102186.41;5059714;28;20033;-72
2021/10/27 10:05:01;;;;;;;15.05;4.65;;;;;;;14.74;80.82;102194.78;5060162;28;20383;-72
2021/10/27 10:07:28;;;;;;;13.68;5.35;;;;;;;14.68;80.85;102191.09;5059743;28;20096;-72
2021/10/27 10:09:54;;;;;;;13.75;4.95;;;;;;;14.87;80.26;102195.78;5060306;28;20032;-72
2021/10/27 10:12:19;;;;;;;10.02;4.97;;;;;;;14.95;79.64;102194.84;5059790;28;20407;-72
2021/10/27 10:14:49;;;;;;;17.85;4.93;;;;;;;14.99;80.17;102195.28;5059802;28;20055;-72
2021/10/27 10:17:15;;;;;;;11.45;4.47;;;;;;;14.95;80.14;102192.25;5041668;28;20088;-73
2021/10/27 10:19:42;;;;;;;12.07;4.85;;;;;;;14.89;80.65;102198.19;5059465;28;20033;-72
2021/10/27 10:22:30;;;;;;;10.85;4.90;;;;;;;15.03;80.09;102192.16;5059774;28;20024;-73
2021/10/27 10:25:17;;;;;;;16.35;5.20;;;;;;;15.19;79.27;102190.31;5060180;28;20052;-74
2021/10/27 10:27:47;;;;;;;11.40;5.00;;;;;;;14.83;79.14;102172.88;5062423;28;20429;-74
2021/10/27 10:33:42;;;;;;;12.85;3.97;;;;;;;15.32;78.27;102208.72;5059853;28;20059;-73
2021/10/27 10:36:27;;;;;;;9.50;4.00;;;;;;;15.05;78.24;102181.56;5041471;28;20036;-73
2021/10/27 10:41:41;;;;;;;9.38;3.92;;;;;;;15.30;77.76;102214.09;5059415;28;20033;-72
2021/10/27 10:58:12;;;;;;;8.93;3.35;;;;;;;15.33;76.06;102234.59;5056464;28;20067;-71
2021/10/27 11:00:55;;;;;;;10.40;3.22;;;;;;;15.28;76.27;102229.13;5056241;28;20025;-72
2021/10/27 11:37:36;;;;;;;4.97;2.08;;;;;;;15.30;73.91;102175.03;5061675;28;20086;-75
2021/10/27 11:40:14;;;;;;;8.77;2.20;;;;;;;15.30;74.32;102193.25;5060851;28;20030;-77
2021/10/27 11:48:00;;;;;;;10.60;2.67;;;;;;;15.31;73.76;102187.06;5055522;28;20037;-72
2021/10/27 11:50:38;;;;;;;8.30;2.50;;;;;;;15.30;74.15;102179.44;5037475;28;20025;-72
2021/10/27 11:53:06;;;;;;;9.77;2.50;;;;;;;15.47;73.61;102177.41;5055165;28;20021;-72
2021/10/27 11:55:33;;;;;;;13.52;2.50;;;;;;;15.40;73.78;102166.13;5055213;28;20024;-73
2021/10/27 11:57:59;;;;;;;9.77;2.65;;;;;;;15.47;73.67;102167.78;5037167;28;20053;-73
2021/10/27 12:00:36;;;;;;;9.30;2.78;;;;;;;15.53;73.98;102169.66;5037071;28;20071;-73
2021/10/27 12:03:27;;;;;;;7.05;2.65;;;;;;;15.46;74.22;102166.19;5037088;28;20025;-73
2021/10/27 12:06:06;;;;;;;8.45;2.92;;;;;;;15.47;74.00;102156.56;5054706;28;20537;-71
2021/10/27 12:18:00;;;;;;;12.32;3.50;;;;;;;15.54;74.35;102150.44;5055107;28;20035;-73
2021/10/27 12:20:46;;;;;;;9.73;3.67;;;;;;;15.43;74.83;102145.72;5054333;28;20360;-73
2021/10/27 12:23:25;;;;;;;10.52;3.85;;;;;;;15.53;74.83;102138.38;5054414;28;20029;-73
2021/10/27 12:25:53;;;;;;;8.23;3.70;;;;;;;15.66;74.76;102142.13;5054348;28;20028;-73
2021/10/27 12:28:30;;;;;;;8.40;3.80;;;;;;;15.65;74.36;102146.53;5055013;28;20024;-73
2021/10/27 12:30:55;;;;;;;11.63;3.60;;;;;;;15.76;74.80;102137.41;5054306;28;20102;-72
2021/10/27 12:33:41;;;;;;;8.93;3.78;;;;;;;15.63;73.90;102142.50;5054161;28;20468;-71
2021/10/27 12:36:36;;;;;;;7.65;3.30;;;;;;;15.60;73.86;102130.66;5054446;28;20032;-72
2021/10/27 12:39:22;;;;;;;9.43;3.55;;;;;;;15.78;73.40;102131.03;5054683;28;20025;-73
2021/10/27 12:42:07;;;;;;;9.32;3.67;;;;;;;15.87;72.27;102123.06;5036905;28;20036;-72
2021/10/27 12:44:34;;;;;;;14.57;3.33;;;;;;;15.81;72.18;102122.03;5036253;28;20120;-71
2021/10/27 12:47:15;;;;;;;7.97;3.33;;;;;;;15.76;72.56;102111.34;5054153;28;20096;-72
2021/10/27 12:49:46;;;;;;;10.55;3.22;;;;;;;15.70;72.80;102109.50;5036106;28;20029;-72
2021/10/27 12:52:37;;;;;;;12.13;3.70;;;;;;;15.68;72.57;102107.09;5054050;28;20025;-72
2021/10/27 12:55:11;;;;;;;6.32;3.05;;;;;;;15.64;72.61;102077.16;5056027;28;20029;-72
2021/10/27 12:57:58;;;;;;;6.85;3.22;;;;;;;15.70;71.57;102102.47;5042471;28;20031;-74
2021/10/27 13:00:38;;;;;;;8.35;3.58;;;;;;;15.75;71.48;102102.72;5060356;28;20029;-76
2021/10/27 13:06:16;;;;;;;8.52;3.58;;;;;;;15.73;71.04;102101.31;5054073;28;20106;-72
2021/10/27 13:30:32;;;;;;;7.45;3.13;;;;;;;16.09;69.16;102108.19;5054241;28;20052;-73
2021/10/27 13:33:00;;;;;;;7.25;3.38;;;;;;;16.10;69.47;102101.97;5035471;28;20025;-72
2021/10/27 13:35:26;;;;;;;8.48;3.40;;;;;;;15.81;69.32;102103.78;5053178;28;20025;-72
2021/10/27 13:37:52;;;;;;;10.90;3.67;;;;;;;15.85;69.79;102102.38;5053235;28;20039;-72
2021/10/27 13:40:17;;;;;;;9.07;3.20;;;;;;;15.73;70.21;102107.31;5053762;28;20033;-73
2021/10/27 13:42:47;;;;;;;10.20;3.60;;;;;;;15.71;70.17;102108.53;5053471;28;20479;-73
2021/10/27 13:45:30;;;;;;;11.25;3.28;;;;;;;15.63;71.16;102104.22;5053277;28;20104;-72
2021/10/27 13:48:11;;;;;;;7.13;3.50;;;;;;;15.92;69.95;102107.66;5037892;28;20030;-73
2021/10/27 14:07:02;;;;;;;9.30;3.45;;;;;;;15.78;70.15;102091.94;5022049;28;20024;-73
2021/10/27 14:09:46;;;;;;;6.50;3.03;;;;;;;15.83;70.55;102095.78;5053299;28;20495;-72
2021/10/27 14:14:55;;;;;;;9.32;4.22;;;;;;;15.68;71.67;102099.28;5053417;28;20475;-72
2021/10/27 14:47:48;;;;;;;10.95;4.50;;;;;;;14.87;73.82;102070.84;5056888;28;20434;-71
2021/10/27 15:28:17;;;;;;;17.10;6.82;;;;;;;14.26;77.03;102083.25;5056408;28;20040;-72
2021/10/27 15:33:15;;;;;;;9.32;5.70;;;;;;;14.32;76.38;102098.13;5055409;28;20418;-72
2021/10/27 15:52:26;;;;;;;13.10;6.32;;;;;;;14.31;75.70;102082.72;5055727;28;20537;-72
2021/10/27 15:54:51;;;;;;;11.65;6.07;;;;;;;14.26;75.78;102077.25;5054925;28;20029;-72
2021/10/27 15:57:17;;;;;;;10.63;6.13;;;;;;;14.18;76.23;102083.34;5055678;28;20534;-72
2021/10/27 15:59:43;;;;;;;13.52;6.38;;;;;;;14.06;76.75;102074.38;5037170;28;20021;-72
2021/10/27 16:02:10;;;;;;;12.88;6.18;;;;;;;13.98;77.18;102075.25;5037165;28;20052;-73
2021/10/27 16:04:37;;;;;;;12.23;6.50;;;;;;;13.92;77.05;102079.38;5054952;28;20025;-72
2021/10/27 16:07:05;;;;;;;14.05;6.47;;;;;;;13.80;77.89;102067.81;5036941;28;20024;-72
2021/10/27 16:09:37;;;;;;;16.50;6.50;;;;;;;13.70;77.73;102078.47;5054692;28;20107;-72
2021/10/27 16:12:03;;;;;;;12.88;7.00;;;;;;;13.68;78.08;102079.59;5036949;28;20028;-73